Time;durP1;ratioP1;P1;durP2;ratioP2;P2;SDS_P1;SDS_P2;PMS_P1;PMS_P2;Temp;Humidity;BMP_temperature;BMP_pressure;BME280_temperature;BME280_humidity;BME280_pressure;Samples;Min_cycle;Max_cycle;Signal;HPM_P1;HPM_P2
2021/08/05 00:02:12;;;;;;;20.85;7.43;;;;;;;;;;143733;584;47011;-56
2021/08/05 00:04:40;;;;;;;19.05;7.12;;;;;;;;;;143734;596;45021;-56
2021/08/05 00:07:07;;;;;;;23.30;8.05;;;;;;;;;;143739;569;46020;-56
2021/08/05 00:09:34;;;;;;;18.92;6.78;;;;;;;;;;143734;579;47022;-55
2021/08/05 00:12:01;;;;;;;18.33;7.50;;;;;;;;;;143734;589;46010;-56
2021/08/05 00:14:29;;;;;;;18.80;7.55;;;;;;;;;;143732;573;45020;-55
2021/08/05 00:16:56;;;;;;;24.92;7.70;;;;;;;;;;143737;594;46020;-56
2021/08/05 00:19:23;;;;;;;20.10;6.78;;;;;;;;;;143733;598;47020;-56
2021/08/05 00:21:50;;;;;;;18.17;6.30;;;;;;;;;;143733;577;46010;-56
2021/08/05 00:24:17;;;;;;;17.80;6.43;;;;;;;;;;143734;592;45021;-55
2021/08/05 00:26:45;;;;;;;16.27;7.28;;;;;;;;;;143738;602;46012;-56
2021/08/05 00:29:12;;;;;;;25.88;7.40;;;;;;;;;;143734;582;47020;-55
2021/08/05 00:31:39;;;;;;;16.45;6.12;;;;;;;;;;143733;581;47010;-55
2021/08/05 00:34:06;;;;;;;18.48;7.00;;;;;;;;;;143733;592;45021;-56
2021/08/05 00:36:32;;;;;;;14.20;6.95;;;;;;;;;;143738;604;46012;-55
2021/08/05 00:39:00;;;;;;;20.80;7.03;;;;;;;;;;143733;615;47021;-55
2021/08/05 00:41:27;;;;;;;20.35;6.72;;;;;;;;;;143732;621;47010;-55
2021/08/05 00:43:54;;;;;;;21.73;7.03;;;;;;;;;;143733;624;45910;-56
2021/08/05 00:46:21;;;;;;;16.95;6.57;;;;;;;;;;143738;578;46020;-56
2021/08/05 00:48:48;;;;;;;17.98;6.68;;;;;;;;;;143732;580;47020;-56
2021/08/05 00:51:15;;;;;;;19.73;7.12;;;;;;;;;;143735;588;46010;-55
2021/08/05 00:53:44;;;;;;;24.45;8.48;;;;;;;;;;143736;583;45021;-55
2021/08/05 00:56:12;;;;;;;13.18;6.25;;;;;;;;;;143738;582;46020;-56
2021/08/05 00:58:39;;;;;;;21.35;6.80;;;;;;;;;;143734;586;47020;-56
2021/08/05 01:01:14;;;;;;;14.40;7.57;;;;;;;;;;143734;583;46011;-56
2021/08/05 01:03:46;;;;;;;25.95;7.68;;;;;;;;;;143735;628;45020;-55
2021/08/05 01:06:44;;;;;;;26.62;8.30;;;;;;;;;;143737;574;46020;-56
2021/08/05 01:09:41;;;;;;;14.02;7.05;;;;;;;;;;143734;635;47024;-55
2021/08/05 01:12:27;;;;;;;20.58;8.93;;;;;;;;;;143735;566;47020;-56
2021/08/05 01:15:07;;;;;;;22.58;8.07;;;;;;;;;;143735;575;46014;-56
2021/08/05 01:17:38;;;;;;;24.42;7.87;;;;;;;;;;143739;619;46012;-55
2021/08/05 01:20:09;;;;;;;16.30;6.70;;;;;;;;;;143733;564;47022;-56
2021/08/05 01:23:28;;;;;;;30.75;8.00;;;;;;;;;;143734;567;46915;-56
2021/08/05 01:26:24;;;;;;;21.10;7.03;;;;;;;;;;143737;589;45023;-55
2021/08/05 01:28:52;;;;;;;22.52;7.37;;;;;;;;;;143738;589;46020;-56
2021/08/05 01:31:22;;;;;;;17.35;6.93;;;;;;;;;;143734;570;47021;-56
2021/08/05 01:33:50;;;;;;;17.67;6.55;;;;;;;;;;143735;620;46010;-56
2021/08/05 01:36:19;;;;;;;15.82;7.40;;;;;;;;;;143733;572;45910;-56
2021/08/05 01:38:48;;;;;;;25.20;8.43;;;;;;;;;;143740;605;46012;-55
2021/08/05 01:41:16;;;;;;;21.60;7.43;;;;;;;;;;143734;564;47020;-56
2021/08/05 01:43:46;;;;;;;21.75;8.45;;;;;;;;;;143735;577;46010;-55
2021/08/05 01:46:13;;;;;;;20.27;8.52;;;;;;;;;;143736;581;45021;-55
2021/08/05 01:48:41;;;;;;;24.10;8.25;;;;;;;;;;143739;565;46020;-55
2021/08/05 01:51:08;;;;;;;25.50;8.75;;;;;;;;;;143734;601;47020;-56
2021/08/05 01:53:35;;;;;;;24.63;8.20;;;;;;;;;;143735;577;46011;-56
2021/08/05 01:56:02;;;;;;;25.98;9.25;;;;;;;;;;143733;621;46021;-56
2021/08/05 01:58:29;;;;;;;22.70;8.88;;;;;;;;;;143739;582;46020;-56
2021/08/05 02:00:56;;;;;;;20.20;8.70;;;;;;;;;;143733;571;47021;-56
2021/08/05 02:03:23;;;;;;;19.45;8.38;;;;;;;;;;143735;570;46010;-56
2021/08/05 02:06:20;;;;;;;13.10;6.95;;;;;;;;;;143735;569;45020;-55
2021/08/05 02:09:16;;;;;;;21.90;7.95;;;;;;;;;;143737;580;47013;-56
2021/08/05 02:11:48;;;;;;;26.20;8.07;;;;;;;;;;143733;555;47024;-56
2021/08/05 02:14:17;;;;;;;18.65;6.75;;;;;;;;;;143735;582;46010;-56
2021/08/05 02:16:45;;;;;;;26.50;8.80;;;;;;;;;;143736;693;45021;-56
2021/08/05 02:19:14;;;;;;;20.05;8.52;;;;;;;;;;143738;606;46020;-56
2021/08/05 02:21:43;;;;;;;20.75;7.35;;;;;;;;;;143734;563;47020;-55
2021/08/05 02:24:12;;;;;;;29.73;8.77;;;;;;;;;;143734;581;46010;-56
2021/08/05 02:26:41;;;;;;;21.95;8.40;;;;;;;;;;143734;579;45020;-56
2021/08/05 02:29:09;;;;;;;35.88;9.00;;;;;;;;;;143737;576;46020;-55
2021/08/05 02:31:37;;;;;;;34.28;11.25;;;;;;;;;;143735;581;47021;-55
2021/08/05 02:34:06;;;;;;;27.87;10.93;;;;;;;;;;143730;571;47010;-56
2021/08/05 02:36:34;;;;;;;23.02;10.00;;;;;;;;;;143733;591;45910;-56
2021/08/05 02:39:01;;;;;;;29.98;10.73;;;;;;;;;;143737;566;46021;-56
2021/08/05 02:41:28;;;;;;;39.55;13.05;;;;;;;;;;143733;564;47031;-56
2021/08/05 02:44:00;;;;;;;35.67;12.02;;;;;;;;;;143734;647;47010;-56
2021/08/05 02:46:29;;;;;;;32.38;11.30;;;;;;;;;;143735;587;45911;-56
2021/08/05 02:48:57;;;;;;;30.20;12.20;;;;;;;;;;143736;611;46020;-55
2021/08/05 02:51:25;;;;;;;44.95;15.32;;;;;;;;;;143734;617;47020;-56
2021/08/05 02:53:52;;;;;;;37.72;13.30;;;;;;;;;;143734;638;46020;-55
2021/08/05 02:56:20;;;;;;;24.65;10.95;;;;;;;;;;143732;592;46020;-56
2021/08/05 02:58:48;;;;;;;45.08;12.63;;;;;;;;;;143739;581;46012;-56
2021/08/05 03:01:15;;;;;;;37.50;13.98;;;;;;;;;;143734;625;47021;-56
2021/08/05 03:03:42;;;;;;;36.47;12.65;;;;;;;;;;143734;586;47010;-56
2021/08/05 03:06:10;;;;;;;31.67;11.43;;;;;;;;;;143736;585;45020;-56
2021/08/05 03:08:46;;;;;;;34.55;12.85;;;;;;;;;;143739;574;46012;-56
2021/08/05 03:11:13;;;;;;;42.55;12.52;;;;;;;;;;143732;578;47022;-56
2021/08/05 03:13:41;;;;;;;71.25;15.60;;;;;;;;;;143732;654;47010;-55
2021/08/05 03:16:08;;;;;;;57.90;14.13;;;;;;;;;;143735;582;46021;-57
2021/08/05 03:18:35;;;;;;;43.05;14.20;;;;;;;;;;143738;595;46012;-55
2021/08/05 03:21:02;;;;;;;47.95;13.20;;;;;;;;;;143733;600;47022;-56
2021/08/05 03:23:29;;;;;;;59.30;14.98;;;;;;;;;;143731;599;47010;-56
2021/08/05 03:25:55;;;;;;;37.22;11.70;;;;;;;;;;143735;569;45020;-55
2021/08/05 03:28:22;;;;;;;42.45;13.07;;;;;;;;;;143731;585;46031;-55
2021/08/05 03:30:49;;;;;;;38.22;12.32;;;;;;;;;;143733;622;47023;-55
2021/08/05 03:33:16;;;;;;;39.22;11.45;;;;;;;;;;143735;594;47010;-56
2021/08/05 03:35:43;;;;;;;32.53;11.95;;;;;;;;;;143732;572;46012;-56
2021/08/05 03:38:10;;;;;;;37.83;11.48;;;;;;;;;;143735;603;46021;-56
2021/08/05 03:40:37;;;;;;;34.70;10.45;;;;;;;;;;143734;607;47022;-56
2021/08/05 03:43:05;;;;;;;35.97;10.77;;;;;;;;;;143734;574;47010;-56
2021/08/05 03:45:35;;;;;;;36.60;13.62;;;;;;;;;;143735;577;45910;-56
2021/08/05 03:48:02;;;;;;;38.33;11.98;;;;;;;;;;143736;585;46020;-56
2021/08/05 03:50:29;;;;;;;51.28;13.93;;;;;;;;;;143732;569;47022;-56
2021/08/05 03:52:56;;;;;;;41.45;17.98;;;;;;;;;;143735;707;46011;-55
2021/08/05 03:55:23;;;;;;;42.75;23.70;;;;;;;;;;143734;693;46014;-56
2021/08/05 03:57:50;;;;;;;42.47;16.30;;;;;;;;;;143737;579;46012;-56
2021/08/05 04:00:19;;;;;;;38.35;14.43;;;;;;;;;;143733;602;47021;-56
2021/08/05 04:02:46;;;;;;;48.25;14.15;;;;;;;;;;143732;620;47010;-56
2021/08/05 04:05:13;;;;;;;38.97;13.70;;;;;;;;;;143734;585;45910;-56
2021/08/05 04:07:40;;;;;;;37.17;15.63;;;;;;;;;;143739;589;46013;-55
2021/08/05 04:10:08;;;;;;;34.67;14.35;;;;;;;;;;143734;610;47020;-56
2021/08/05 04:12:35;;;;;;;32.00;14.73;;;;;;;;;;143730;570;47010;-55
2021/08/05 04:15:02;;;;;;;52.08;16.55;;;;;;;;;;143734;586;45023;-56
2021/08/05 04:17:29;;;;;;;45.63;13.38;;;;;;;;;;143737;643;46018;-55
2021/08/05 04:19:56;;;;;;;49.30;14.27;;;;;;;;;;143734;633;47020;-56
2021/08/05 04:22:23;;;;;;;37.75;13.05;;;;;;;;;;143733;594;46026;-56
2021/08/05 04:24:50;;;;;;;48.50;14.15;;;;;;;;;;143733;564;45909;-56
2021/08/05 04:27:17;;;;;;;34.75;13.00;;;;;;;;;;143738;564;46012;-55
2021/08/05 04:29:44;;;;;;;35.22;11.52;;;;;;;;;;143732;570;47021;-56
2021/08/05 04:32:11;;;;;;;37.60;11.98;;;;;;;;;;143731;585;47010;-56
2021/08/05 04:34:38;;;;;;;51.70;13.20;;;;;;;;;;143734;714;45020;-56
2021/08/05 04:37:05;;;;;;;35.20;11.23;;;;;;;;;;143738;566;46020;-56
2021/08/05 04:39:33;;;;;;;45.38;12.52;;;;;;;;;;143733;564;47023;-56
2021/08/05 04:42:00;;;;;;;38.80;11.77;;;;;;;;;;143732;599;46010;-57
2021/08/05 04:44:27;;;;;;;38.80;12.82;;;;;;;;;;143733;577;45910;-56
2021/08/05 04:46:54;;;;;;;39.10;12.30;;;;;;;;;;143738;582;46012;-57
2021/08/05 04:49:21;;;;;;;49.08;14.45;;;;;;;;;;143735;622;47020;-57
2021/08/05 04:51:49;;;;;;;46.90;14.63;;;;;;;;;;143733;664;46011;-57
2021/08/05 04:54:16;;;;;;;45.55;14.38;;;;;;;;;;143736;564;45020;-57
2021/08/05 04:56:43;;;;;;;45.15;13.27;;;;;;;;;;143738;668;46012;-56
2021/08/05 04:59:10;;;;;;;42.08;12.98;;;;;;;;;;143734;671;47021;-57
2021/08/05 05:01:36;;;;;;;41.20;14.00;;;;;;;;;;143733;565;47010;-57
2021/08/05 05:04:04;;;;;;;44.75;14.05;;;;;;;;;;143735;730;45910;-57
2021/08/05 05:06:31;;;;;;;39.10;12.77;;;;;;;;;;143738;588;47013;-56
2021/08/05 05:08:58;;;;;;;43.95;12.88;;;;;;;;;;143735;572;47020;-57
2021/08/05 05:11:25;;;;;;;44.92;14.75;;;;;;;;;;143733;615;47010;-57
2021/08/05 05:13:52;;;;;;;49.95;15.05;;;;;;;;;;143735;607;46020;-57
2021/08/05 05:16:19;;;;;;;51.10;15.93;;;;;;;;;;143739;610;46012;-57
2021/08/05 05:18:46;;;;;;;52.90;15.98;;;;;;;;;;143735;660;47020;-56
2021/08/05 05:21:13;;;;;;;51.20;17.00;;;;;;;;;;143733;786;47010;-56
2021/08/05 05:23:40;;;;;;;44.10;16.58;;;;;;;;;;143736;711;45021;-56
2021/08/05 05:26:07;;;;;;;48.90;19.58;;;;;;;;;;143738;577;46020;-56
2021/08/05 05:28:34;;;;;;;61.53;18.85;;;;;;;;;;143730;707;47022;-57
2021/08/05 05:31:01;;;;;;;72.60;20.50;;;;;;;;;;143733;658;46010;-56
2021/08/05 05:33:28;;;;;;;54.53;18.60;;;;;;;;;;143734;564;45020;-56
2021/08/05 05:35:56;;;;;;;49.65;17.73;;;;;;;;;;143735;570;46020;-56
2021/08/05 05:38:23;;;;;;;59.42;17.50;;;;;;;;;;143731;607;47021;-56
2021/08/05 05:40:51;;;;;;;49.78;14.68;;;;;;;;;;143732;632;46020;-55
2021/08/05 05:43:17;;;;;;;45.28;14.23;;;;;;;;;;143730;604;46020;-56
2021/08/05 05:45:45;;;;;;;43.53;14.25;;;;;;;;;;143736;650;46021;-55
2021/08/05 05:48:12;;;;;;;37.92;13.57;;;;;;;;;;143732;587;47020;-56
2021/08/05 05:50:40;;;;;;;32.72;12.50;;;;;;;;;;143731;564;47011;-56
2021/08/05 05:53:07;;;;;;;35.38;11.80;;;;;;;;;;143731;622;46021;-55
2021/08/05 05:55:34;;;;;;;42.75;11.48;;;;;;;;;;143736;582;46020;-54
2021/08/05 05:58:01;;;;;;;29.30;11.40;;;;;;;;;;143732;584;47020;-56
2021/08/05 06:00:29;;;;;;;38.42;11.60;;;;;;;;;;143732;578;46011;-55
2021/08/05 06:02:56;;;;;;;36.10;11.30;;;;;;;;;;143733;576;45020;-55
2021/08/05 06:05:23;;;;;;;47.55;12.63;;;;;;;;;;143736;598;46013;-55
2021/08/05 06:07:51;;;;;;;40.00;13.75;;;;;;;;;;143733;667;47021;-54
2021/08/05 06:10:20;;;;;;;38.60;12.63;;;;;;;;;;143727;564;47010;-54
2021/08/05 06:12:48;;;;;;;37.67;12.50;;;;;;;;;;143732;578;45020;-53
2021/08/05 06:15:16;;;;;;;41.75;13.55;;;;;;;;;;143734;581;47012;-52
2021/08/05 06:17:45;;;;;;;37.95;11.98;;;;;;;;;;143732;607;47020;-52
2021/08/05 06:20:13;;;;;;;41.63;12.95;;;;;;;;;;143731;646;47010;-53
2021/08/05 06:22:42;;;;;;;39.80;12.45;;;;;;;;;;143724;612;47015;-53
2021/08/05 06:25:10;;;;;;;41.35;12.07;;;;;;;;;;143736;593;46020;-53
2021/08/05 06:27:37;;;;;;;36.70;12.65;;;;;;;;;;143733;646;47020;-53
2021/08/05 06:30:05;;;;;;;40.00;11.52;;;;;;;;;;143731;621;46010;-53
2021/08/05 06:32:32;;;;;;;35.42;11.38;;;;;;;;;;143732;649;45020;-52
2021/08/05 06:34:59;;;;;;;34.35;12.37;;;;;;;;;;143735;602;47013;-53
2021/08/05 06:37:26;;;;;;;34.20;14.73;;;;;;;;;;143733;583;47020;-52
2021/08/05 06:39:53;;;;;;;38.83;14.27;;;;;;;;;;143733;599;46010;-53
2021/08/05 06:42:20;;;;;;;30.40;14.75;;;;;;;;;;143736;597;45020;-52
2021/08/05 06:44:47;;;;;;;31.50;13.95;;;;;;;;;;143736;581;46013;-53
2021/08/05 06:47:15;;;;;;;32.40;13.18;;;;;;;;;;143730;623;47020;-54
2021/08/05 06:49:43;;;;;;;39.22;13.40;;;;;;;;;;143731;680;47010;-53
2021/08/05 06:52:10;;;;;;;31.35;12.88;;;;;;;;;;143731;682;47010;-54
2021/08/05 06:54:37;;;;;;;38.05;12.55;;;;;;;;;;143736;620;46032;-53
2021/08/05 06:57:04;;;;;;;48.00;12.70;;;;;;;;;;143732;651;47022;-52
2021/08/05 06:59:31;;;;;;;33.72;12.50;;;;;;;;;;143732;642;46011;-53
2021/08/05 07:01:59;;;;;;;40.83;15.57;;;;;;;;;;143734;607;45020;-53
2021/08/05 07:04:26;;;;;;;51.60;14.15;;;;;;;;;;143736;576;46020;-54
2021/08/05 07:06:54;;;;;;;43.30;12.45;;;;;;;;;;143732;819;47022;-54
2021/08/05 07:09:21;;;;;;;40.33;12.35;;;;;;;;;;143731;635;47010;-54
2021/08/05 07:11:48;;;;;;;24.20;10.07;;;;;;;;;;143730;657;46020;-54
2021/08/05 07:14:15;;;;;;;37.70;12.43;;;;;;;;;;143734;664;46020;-54
2021/08/05 07:16:42;;;;;;;37.42;11.25;;;;;;;;;;143730;577;47022;-52
2021/08/05 07:19:09;;;;;;;31.65;11.57;;;;;;;;;;143730;568;47019;-52
2021/08/05 07:21:36;;;;;;;37.78;11.40;;;;;;;;;;143732;633;46020;-54
2021/08/05 07:24:03;;;;;;;32.78;11.70;;;;;;;;;;143734;664;46020;-53
2021/08/05 07:26:30;;;;;;;37.83;11.70;;;;;;;;;;143732;580;47020;-53
2021/08/05 07:28:57;;;;;;;32.40;12.20;;;;;;;;;;143731;678;47010;-54
2021/08/05 07:31:24;;;;;;;35.65;13.05;;;;;;;;;;143731;584;46020;-54
2021/08/05 07:33:54;;;;;;;30.30;10.68;;;;;;;;;;143734;576;47012;-52
2021/08/05 07:36:21;;;;;;;35.75;11.85;;;;;;;;;;143732;632;47021;-53
2021/08/05 07:38:48;;;;;;;38.38;12.30;;;;;;;;;;143730;566;47010;-54
2021/08/05 07:41:16;;;;;;;37.95;12.48;;;;;;;;;;143731;564;46020;-54
2021/08/05 07:43:43;;;;;;;47.80;13.95;;;;;;;;;;143733;582;46021;-53
2021/08/05 07:46:10;;;;;;;33.88;12.20;;;;;;;;;;143734;631;47023;-53
2021/08/05 07:48:37;;;;;;;31.55;12.43;;;;;;;;;;143737;601;47010;-52
2021/08/05 07:51:04;;;;;;;34.38;12.88;;;;;;;;;;143740;645;46020;-53
2021/08/05 07:53:31;;;;;;;29.92;12.30;;;;;;;;;;143744;570;46020;-54
2021/08/05 07:55:58;;;;;;;30.08;13.45;;;;;;;;;;143739;587;47020;-54
2021/08/05 07:58:25;;;;;;;31.98;11.60;;;;;;;;;;143739;564;47010;-53
2021/08/05 08:00:52;;;;;;;29.65;11.88;;;;;;;;;;143741;595;46020;-54
2021/08/05 08:03:19;;;;;;;32.85;10.95;;;;;;;;;;143744;633;46020;-53
2021/08/05 08:05:46;;;;;;;29.73;11.50;;;;;;;;;;143739;569;47021;-54
2021/08/05 08:08:16;;;;;;;30.05;10.02;;;;;;;;;;143739;637;46020;-53
2021/08/05 08:10:43;;;;;;;27.20;10.45;;;;;;;;;;143742;594;46020;-53
2021/08/05 08:13:10;;;;;;;27.52;10.15;;;;;;;;;;143741;591;46021;-54
2021/08/05 08:15:37;;;;;;;30.55;11.52;;;;;;;;;;143741;577;47020;-53
2021/08/05 08:18:04;;;;;;;37.60;11.10;;;;;;;;;;143739;574;47010;-54
2021/08/05 08:20:32;;;;;;;34.10;11.98;;;;;;;;;;143739;608;46021;-53
2021/08/05 08:22:59;;;;;;;28.70;9.82;;;;;;;;;;143742;619;46020;-53
2021/08/05 08:25:26;;;;;;;34.75;11.80;;;;;;;;;;143742;591;47020;-55
2021/08/05 08:27:53;;;;;;;29.05;10.93;;;;;;;;;;143738;609;47011;-53
2021/08/05 08:30:21;;;;;;;24.83;10.00;;;;;;;;;;143734;570;46020;-53
2021/08/05 08:32:48;;;;;;;23.45;9.75;;;;;;;;;;143743;613;46020;-54
2021/08/05 08:35:15;;;;;;;27.37;10.48;;;;;;;;;;143741;587;47021;-53
2021/08/05 08:37:43;;;;;;;29.42;10.45;;;;;;;;;;143740;564;47010;-53
2021/08/05 08:40:11;;;;;;;27.62;10.45;;;;;;;;;;143741;570;46020;-54
2021/08/05 08:42:40;;;;;;;25.60;10.32;;;;;;;;;;143742;567;46020;-54
2021/08/05 08:45:09;;;;;;;25.58;9.80;;;;;;;;;;143740;606;47020;-54
2021/08/05 08:47:38;;;;;;;26.30;9.35;;;;;;;;;;143743;565;47010;-55
2021/08/05 08:50:06;;;;;;;25.73;9.40;;;;;;;;;;143740;566;46020;-54
2021/08/05 08:52:36;;;;;;;25.73;10.57;;;;;;;;;;143749;583;46020;-54
2021/08/05 08:55:04;;;;;;;29.08;8.50;;;;;;;;;;143739;563;47020;-54
2021/08/05 08:57:36;;;;;;;32.17;10.05;;;;;;;;;;143745;586;47010;-54
2021/08/05 09:00:10;;;;;;;27.90;10.27;;;;;;;;;;143741;570;46020;-53
2021/08/05 09:02:37;;;;;;;28.08;9.65;;;;;;;;;;143741;599;46020;-54
2021/08/05 09:05:06;;;;;;;26.52;10.30;;;;;;;;;;143746;585;47021;-55
2021/08/05 09:07:34;;;;;;;23.60;9.75;;;;;;;;;;143740;592;46010;-55
2021/08/05 09:10:01;;;;;;;26.58;9.45;;;;;;;;;;143745;585;46020;-55
2021/08/05 09:12:28;;;;;;;26.42;10.05;;;;;;;;;;143746;564;46021;-55
2021/08/05 09:14:55;;;;;;;22.62;8.98;;;;;;;;;;143740;584;47020;-56
2021/08/05 09:17:25;;;;;;;28.00;9.50;;;;;;;;;;143746;657;46031;-54
2021/08/05 09:19:55;;;;;;;27.30;9.88;;;;;;;;;;143744;628;46020;-56
2021/08/05 09:22:43;;;;;;;28.23;9.50;;;;;;;;;;143749;672;46020;-54
2021/08/05 09:25:34;;;;;;;32.67;9.45;;;;;;;;;;143743;609;47021;-54
2021/08/05 09:28:15;;;;;;;26.98;9.20;;;;;;;;;;143746;621;46021;-54
2021/08/05 09:30:44;;;;;;;33.70;10.90;;;;;;;;;;143745;624;46020;-54
2021/08/05 09:33:13;;;;;;;34.13;10.48;;;;;;;;;;143743;623;46020;-54
2021/08/05 09:35:42;;;;;;;26.50;10.20;;;;;;;;;;143739;574;47021;-54
2021/08/05 09:38:23;;;;;;;22.83;9.05;;;;;;;;;;143738;577;47022;-54
2021/08/05 09:41:10;;;;;;;27.35;11.55;;;;;;;;;;143739;574;46020;-53
2021/08/05 09:43:38;;;;;;;34.40;10.35;;;;;;;;;;143743;632;46021;-54
2021/08/05 09:46:06;;;;;;;30.12;10.50;;;;;;;;;;143739;574;47020;-54
2021/08/05 09:48:37;;;;;;;28.45;9.73;;;;;;;;;;143737;588;47010;-53
2021/08/05 09:51:15;;;;;;;37.28;11.05;;;;;;;;;;143745;574;46021;-53
2021/08/05 09:54:14;;;;;;;28.75;10.70;;;;;;;;;;143743;582;46020;-54
2021/08/05 09:56:55;;;;;;;26.08;10.60;;;;;;;;;;143739;586;47024;-54
2021/08/05 09:59:22;;;;;;;21.23;10.82;;;;;;;;;;143739;640;47010;-54
2021/08/05 10:02:00;;;;;;;26.55;10.27;;;;;;;;;;143740;609;46020;-53
2021/08/05 10:04:33;;;;;;;30.85;9.88;;;;;;;;;;143741;569;46020;-54
2021/08/05 10:07:07;;;;;;;35.33;10.73;;;;;;;;;;143738;659;47020;-54
2021/08/05 10:09:36;;;;;;;26.50;9.90;;;;;;;;;;143738;585;47010;-54
2021/08/05 10:12:31;;;;;;;33.15;10.48;;;;;;;;;;143745;603;46020;-54
2021/08/05 10:15:24;;;;;;;22.17;9.07;;;;;;;;;;143742;629;46020;-54
2021/08/05 10:17:56;;;;;;;24.23;8.93;;;;;;;;;;143744;579;47024;-54
2021/08/05 10:20:24;;;;;;;27.65;9.60;;;;;;;;;;143744;590;47011;-53
2021/08/05 10:22:52;;;;;;;24.92;9.05;;;;;;;;;;143738;610;46020;-54
2021/08/05 10:25:22;;;;;;;21.37;8.98;;;;;;;;;;143741;583;46020;-54
2021/08/05 10:27:51;;;;;;;19.25;8.07;;;;;;;;;;143737;571;47020;-54
2021/08/05 10:30:18;;;;;;;23.08;8.82;;;;;;;;;;143740;564;47010;-54
2021/08/05 10:32:47;;;;;;;25.65;10.25;;;;;;;;;;143740;637;46020;-54
2021/08/05 10:35:15;;;;;;;31.95;9.52;;;;;;;;;;143742;588;46021;-54
2021/08/05 10:37:43;;;;;;;39.83;11.23;;;;;;;;;;143741;564;47020;-54
2021/08/05 10:40:12;;;;;;;26.40;9.25;;;;;;;;;;143738;620;47010;-54
2021/08/05 10:42:45;;;;;;;27.70;10.80;;;;;;;;;;143740;571;46021;-54
2021/08/05 10:45:13;;;;;;;27.85;9.70;;;;;;;;;;143743;569;46020;-54
2021/08/05 10:47:41;;;;;;;23.23;8.48;;;;;;;;;;143739;565;47020;-55
2021/08/05 10:50:11;;;;;;;31.65;9.93;;;;;;;;;;143738;564;47010;-55
2021/08/05 10:52:44;;;;;;;26.70;8.60;;;;;;;;;;143739;614;46022;-55
2021/08/05 10:55:37;;;;;;;25.83;8.77;;;;;;;;;;143741;599;46020;-55
2021/08/05 10:58:18;;;;;;;34.65;10.65;;;;;;;;;;143738;630;47025;-55
2021/08/05 11:01:10;;;;;;;28.15;10.73;;;;;;;;;;143737;579;47010;-55
2021/08/05 11:03:40;;;;;;;28.83;9.83;;;;;;;;;;143739;570;46022;-55
2021/08/05 11:06:28;;;;;;;32.85;10.25;;;;;;;;;;143743;566;46020;-55
2021/08/05 11:09:15;;;;;;;22.67;8.55;;;;;;;;;;143737;585;47020;-56
2021/08/05 11:11:42;;;;;;;30.35;9.23;;;;;;;;;;143738;629;47010;-56
2021/08/05 11:14:37;;;;;;;29.58;11.18;;;;;;;;;;143738;588;46020;-56
2021/08/05 11:17:05;;;;;;;31.65;10.77;;;;;;;;;;143743;606;46022;-56
2021/08/05 11:19:36;;;;;;;31.52;10.40;;;;;;;;;;143740;597;47023;-56
2021/08/05 11:22:49;;;;;;;25.80;9.20;;;;;;;;;;143737;577;47010;-57
2021/08/05 11:25:16;;;;;;;26.83;9.07;;;;;;;;;;143737;622;46021;-57
2021/08/05 11:28:03;;;;;;;25.85;8.45;;;;;;;;;;143742;564;46021;-56
2021/08/05 11:30:50;;;;;;;25.00;10.32;;;;;;;;;;143741;594;47022;-56
2021/08/05 11:33:54;;;;;;;33.03;10.48;;;;;;;;;;143739;622;47010;-56
2021/08/05 11:36:46;;;;;;;33.03;12.02;;;;;;;;;;143739;684;46022;-56
2021/08/05 11:39:57;;;;;;;26.85;10.63;;;;;;;;;;143742;621;46018;-56
2021/08/05 11:42:26;;;;;;;24.45;9.63;;;;;;;;;;143739;613;47023;-56
2021/08/05 11:45:18;;;;;;;28.25;9.60;;;;;;;;;;143739;617;47010;-56
2021/08/05 11:47:45;;;;;;;31.27;8.53;;;;;;;;;;143739;622;46020;-57
2021/08/05 11:50:21;;;;;;;26.58;8.50;;;;;;;;;;143746;582;45021;-57
2021/08/05 11:52:50;;;;;;;23.90;8.30;;;;;;;;;;143739;625;47022;-57
2021/08/05 11:55:21;;;;;;;35.40;10.52;;;;;;;;;;143739;600;47010;-56
2021/08/05 11:57:53;;;;;;;34.85;9.77;;;;;;;;;;143741;591;45910;-56
2021/08/05 12:00:25;;;;;;;31.50;9.73;;;;;;;;;;143744;569;46020;-55
2021/08/05 12:02:54;;;;;;;36.63;10.23;;;;;;;;;;143739;608;47021;-56
2021/08/05 12:05:25;;;;;;;27.50;9.35;;;;;;;;;;143740;610;46010;-56
2021/08/05 12:07:53;;;;;;;26.05;9.80;;;;;;;;;;143741;569;45910;-56
2021/08/05 12:10:28;;;;;;;31.90;9.95;;;;;;;;;;143745;595;46020;-56
2021/08/05 12:13:03;;;;;;;34.88;9.45;;;;;;;;;;143739;577;47023;-58
2021/08/05 12:15:53;;;;;;;27.70;9.30;;;;;;;;;;143741;621;46010;-56
2021/08/05 12:18:22;;;;;;;28.15;9.88;;;;;;;;;;143739;592;45909;-57
2021/08/05 12:21:06;;;;;;;28.10;9.52;;;;;;;;;;143745;642;45020;-56
2021/08/05 12:23:37;;;;;;;32.20;10.38;;;;;;;;;;143738;577;47020;-56
2021/08/05 12:26:19;;;;;;;31.77;11.00;;;;;;;;;;143740;598;47011;-57
2021/08/05 12:28:47;;;;;;;32.08;9.38;;;;;;;;;;143743;610;46012;-57
2021/08/05 12:31:24;;;;;;;34.33;9.95;;;;;;;;;;143745;591;45020;-57
2021/08/05 12:33:50;;;;;;;25.08;9.27;;;;;;;;;;143738;616;47021;-56
2021/08/05 12:36:23;;;;;;;25.20;9.43;;;;;;;;;;143739;587;47010;-57
2021/08/05 12:39:02;;;;;;;25.25;9.82;;;;;;;;;;143741;569;45910;-57
2021/08/05 12:41:35;;;;;;;22.90;9.27;;;;;;;;;;143745;587;46020;-57
2021/08/05 12:44:07;;;;;;;25.02;9.15;;;;;;;;;;143742;573;47022;-57
2021/08/05 12:46:36;;;;;;;29.40;9.45;;;;;;;;;;143741;620;47010;-60
2021/08/05 12:49:04;;;;;;;22.17;9.75;;;;;;;;;;143741;569;46021;-58
2021/08/05 12:51:32;;;;;;;30.52;10.50;;;;;;;;;;143742;570;46020;-60
2021/08/05 12:54:16;;;;;;;22.95;10.45;;;;;;;;;;143739;570;47036;-60
2021/08/05 12:56:55;;;;;;;30.62;11.40;;;;;;;;;;143741;576;46020;-59
2021/08/05 12:59:27;;;;;;;30.35;12.50;;;;;;;;;;143740;594;46020;-61
2021/08/05 13:02:04;;;;;;;23.98;12.50;;;;;;;;;;143744;582;46020;-61
2021/08/05 13:04:32;;;;;;;34.20;12.48;;;;;;;;;;143739;566;47021;-60
2021/08/05 13:06:59;;;;;;;38.17;12.25;;;;;;;;;;143742;606;47010;-60
2021/08/05 13:09:27;;;;;;;28.38;12.05;;;;;;;;;;143739;579;47020;-60
2021/08/05 13:11:56;;;;;;;23.70;12.15;;;;;;;;;;143738;605;46021;-60
2021/08/05 13:14:42;;;;;;;33.15;11.18;;;;;;;;;;143739;641;47020;-60
2021/08/05 13:17:16;;;;;;;27.17;11.27;;;;;;;;;;143740;580;47010;-60
2021/08/05 13:20:03;;;;;;;28.98;12.23;;;;;;;;;;143740;579;46021;-60
2021/08/05 13:22:44;;;;;;;32.13;12.95;;;;;;;;;;143743;564;46020;-60
2021/08/05 13:25:20;;;;;;;28.48;11.27;;;;;;;;;;143739;577;47022;-60
2021/08/05 13:28:30;;;;;;;32.03;11.68;;;;;;;;;;143743;594;45917;-61
2021/08/05 13:31:07;;;;;;;31.33;11.75;;;;;;;;;;143741;637;46020;-61
2021/08/05 13:33:34;;;;;;;27.15;10.73;;;;;;;;;;143745;604;46021;-61
2021/08/05 13:36:02;;;;;;;19.80;10.18;;;;;;;;;;143740;569;47023;-60
2021/08/05 13:38:52;;;;;;;22.25;9.98;;;;;;;;;;143741;626;47010;-61
2021/08/05 13:41:19;;;;;;;28.60;10.30;;;;;;;;;;143741;583;46021;-60
2021/08/05 13:43:49;;;;;;;28.45;10.15;;;;;;;;;;143744;581;46020;-61
2021/08/05 13:46:16;;;;;;;30.62;10.07;;;;;;;;;;143741;615;47022;-60
2021/08/05 13:48:45;;;;;;;27.35;11.35;;;;;;;;;;143741;660;47010;-60
2021/08/05 13:51:12;;;;;;;25.70;10.25;;;;;;;;;;143740;661;47020;-60
2021/08/05 13:53:39;;;;;;;26.42;9.68;;;;;;;;;;143743;591;46020;-60
2021/08/05 13:56:06;;;;;;;33.45;10.13;;;;;;;;;;143740;577;47022;-60
2021/08/05 13:58:35;;;;;;;20.95;9.55;;;;;;;;;;143742;581;47010;-60
2021/08/05 14:01:01;;;;;;;25.12;10.48;;;;;;;;;;143740;634;46020;-60
2021/08/05 14:03:29;;;;;;;26.92;10.57;;;;;;;;;;143743;638;46021;-61
2021/08/05 14:05:56;;;;;;;24.75;11.73;;;;;;;;;;143737;604;47022;-60
2021/08/05 14:08:23;;;;;;;20.58;10.07;;;;;;;;;;143743;597;46026;-61
2021/08/05 14:10:50;;;;;;;33.70;10.43;;;;;;;;;;143740;577;46021;-61
2021/08/05 14:13:17;;;;;;;27.85;10.55;;;;;;;;;;143745;601;46020;-61
2021/08/05 14:15:45;;;;;;;22.27;9.20;;;;;;;;;;143742;624;47022;-61
2021/08/05 14:18:12;;;;;;;26.65;9.50;;;;;;;;;;143741;600;47011;-61
2021/08/05 14:20:43;;;;;;;23.98;10.13;;;;;;;;;;143741;592;46020;-60
2021/08/05 14:23:10;;;;;;;22.62;10.23;;;;;;;;;;143744;598;46020;-61
2021/08/05 14:25:37;;;;;;;27.60;9.32;;;;;;;;;;143740;624;47021;-61
2021/08/05 14:28:04;;;;;;;36.05;10.40;;;;;;;;;;143742;596;47010;-62
2021/08/05 14:30:31;;;;;;;25.70;10.02;;;;;;;;;;143740;574;46020;-61
2021/08/05 14:32:58;;;;;;;28.42;9.65;;;;;;;;;;143741;636;46021;-61
2021/08/05 14:35:25;;;;;;;23.48;9.95;;;;;;;;;;143742;641;46042;-60
2021/08/05 14:37:52;;;;;;;20.42;9.43;;;;;;;;;;143740;606;46915;-61
2021/08/05 14:40:20;;;;;;;23.85;9.57;;;;;;;;;;143740;591;46020;-61
2021/08/05 14:42:47;;;;;;;30.48;10.27;;;;;;;;;;143745;578;46020;-61